Time;durP1;ratioP1;P1;durP2;ratioP2;P2;SDS_P1;SDS_P2;PMS_P1;PMS_P2;Temp;Humidity;BMP_temperature;BMP_pressure;BME280_temperature;BME280_humidity;BME280_pressure;Samples;Min_cycle;Max_cycle;Signal;HPM_P1;HPM_P2
2022/08/21 00:00:12;;;;;;;1.85;1.10;;;;;;;;;;7393568;19;20356;-77
2022/08/21 00:02:50;;;;;;;1.50;1.00;;;;;;;;;;7390155;19;20018;-78
2022/08/21 00:05:18;;;;;;;1.13;1.05;;;;;;;;;;7391003;19;20014;-78
2022/08/21 00:07:44;;;;;;;1.42;1.00;;;;;;;;;;7394036;19;20030;-78
2022/08/21 00:10:10;;;;;;;0.93;0.90;;;;;;;;;;7389160;19;20054;-78
2022/08/21 00:12:36;;;;;;;1.00;0.95;;;;;;;;;;7390064;19;20764;-78
2022/08/21 00:15:05;;;;;;;1.42;0.93;;;;;;;;;;7389891;19;20045;-78
2022/08/21 00:17:32;;;;;;;5.07;1.00;;;;;;;;;;7390427;19;20014;-77
2022/08/21 00:19:57;;;;;;;1.25;1.15;;;;;;;;;;7389033;19;20018;-78
2022/08/21 00:22:22;;;;;;;3.83;1.05;;;;;;;;;;7387743;19;20010;-78
2022/08/21 00:24:48;;;;;;;1.30;0.90;;;;;;;;;;7393202;19;20033;-78
2022/08/21 00:27:14;;;;;;;1.70;1.00;;;;;;;;;;7391843;19;20024;-79
2022/08/21 00:29:40;;;;;;;1.83;1.17;;;;;;;;;;7391612;19;20435;-77
2022/08/21 00:32:06;;;;;;;1.25;1.15;;;;;;;;;;7391096;19;20006;-77
2022/08/21 00:34:31;;;;;;;1.00;0.90;;;;;;;;;;7390639;19;20023;-78
2022/08/21 00:36:58;;;;;;;1.13;1.02;;;;;;;;;;7390446;19;20018;-77
2022/08/21 00:39:26;;;;;;;1.30;1.00;;;;;;;;;;7395512;19;20011;-77
2022/08/21 00:41:52;;;;;;;2.25;1.10;;;;;;;;;;7395715;19;20504;-78
2022/08/21 00:44:17;;;;;;;1.98;1.08;;;;;;;;;;7398821;19;20054;-77
2022/08/21 00:46:43;;;;;;;1.20;1.10;;;;;;;;;;7395485;19;20041;-78
2022/08/21 00:49:12;;;;;;;1.23;0.98;;;;;;;;;;7400567;19;20067;-77
2022/08/21 00:51:54;;;;;;;1.00;0.75;;;;;;;;;;7395297;19;20481;-78
2022/08/21 00:54:26;;;;;;;2.67;1.23;;;;;;;;;;7396857;19;20010;-77
2022/08/21 00:56:57;;;;;;;3.70;1.00;;;;;;;;;;7395227;19;20018;-77
2022/08/21 00:59:23;;;;;;;2.90;0.93;;;;;;;;;;7397035;19;20006;-78
2022/08/21 01:01:49;;;;;;;2.35;1.05;;;;;;;;;;7396461;19;20003;-78
2022/08/21 01:04:16;;;;;;;1.10;1.00;;;;;;;;;;7397266;19;20323;-79
2022/08/21 01:06:42;;;;;;;2.47;0.82;;;;;;;;;;7391829;19;20324;-78
2022/08/21 01:09:08;;;;;;;0.77;0.77;;;;;;;;;;7396460;19;20026;-77
2022/08/21 01:11:35;;;;;;;2.55;0.70;;;;;;;;;;7396729;19;20011;-77
2022/08/21 01:14:01;;;;;;;3.15;1.05;;;;;;;;;;7397229;19;20010;-77
2022/08/21 01:16:28;;;;;;;1.10;1.00;;;;;;;;;;7395592;19;20038;-76
2022/08/21 01:18:54;;;;;;;0.98;0.98;;;;;;;;;;7396679;19;20082;-79
2022/08/21 01:21:22;;;;;;;0.80;0.75;;;;;;;;;;7394862;19;20494;-78
2022/08/21 01:23:52;;;;;;;3.55;0.85;;;;;;;;;;7398668;19;20014;-76
2022/08/21 01:26:21;;;;;;;1.20;0.90;;;;;;;;;;7392419;19;20007;-76
2022/08/21 01:28:58;;;;;;;1.05;0.95;;;;;;;;;;7394933;19;20405;-76
2022/08/21 01:31:27;;;;;;;0.80;0.80;;;;;;;;;;7393257;19;20002;-76
2022/08/21 01:33:53;;;;;;;1.67;0.90;;;;;;;;;;7398882;19;20085;-78
2022/08/21 01:36:19;;;;;;;1.50;0.85;;;;;;;;;;7394249;19;20018;-76
2022/08/21 01:38:47;;;;;;;0.90;0.90;;;;;;;;;;7395892;19;20007;-76
2022/08/21 01:41:13;;;;;;;1.20;1.10;;;;;;;;;;7395346;19;20506;-76
2022/08/21 01:43:41;;;;;;;0.90;0.77;;;;;;;;;;7394835;19;20015;-77
2022/08/21 01:46:07;;;;;;;1.45;1.10;;;;;;;;;;7393782;19;20035;-76
2022/08/21 01:48:32;;;;;;;1.10;1.00;;;;;;;;;;7394226;19;20002;-76
2022/08/21 01:50:59;;;;;;;2.33;0.88;;;;;;;;;;7392383;19;20086;-76
2022/08/21 01:53:24;;;;;;;2.97;0.93;;;;;;;;;;7395804;19;20021;-76
2022/08/21 01:55:50;;;;;;;0.65;0.65;;;;;;;;;;7392121;19;20359;-76
2022/08/21 01:58:15;;;;;;;0.77;0.77;;;;;;;;;;7395048;19;20089;-76
2022/08/21 02:00:41;;;;;;;0.98;0.95;;;;;;;;;;7395056;19;20002;-76
2022/08/21 02:03:07;;;;;;;1.08;0.90;;;;;;;;;;7393213;19;20431;-77
2022/08/21 02:05:33;;;;;;;0.75;0.60;;;;;;;;;;7385250;19;20027;-76
2022/08/21 02:07:58;;;;;;;0.80;0.80;;;;;;;;;;7394914;19;20010;-76
2022/08/21 02:10:30;;;;;;;2.35;0.80;;;;;;;;;;7393601;19;20010;-79
2022/08/21 02:13:01;;;;;;;1.60;0.75;;;;;;;;;;7396126;19;20003;-76
2022/08/21 02:15:29;;;;;;;0.82;0.82;;;;;;;;;;7392877;19;20106;-76
2022/08/21 02:17:59;;;;;;;2.20;2.00;;;;;;;;;;7393935;19;20021;-78
2022/08/21 02:20:29;;;;;;;11.55;6.97;;;;;;;;;;7392570;19;20086;-78
2022/08/21 02:22:55;;;;;;;2.15;1.80;;;;;;;;;;7392568;19;20481;-78
2022/08/21 02:25:23;;;;;;;1.63;1.05;;;;;;;;;;7393580;19;20021;-78
2022/08/21 02:27:48;;;;;;;1.80;1.00;;;;;;;;;;7394729;19;20032;-78
2022/08/21 02:30:41;;;;;;;2.03;1.10;;;;;;;;;;7394737;19;20014;-78
2022/08/21 02:33:09;;;;;;;0.95;0.85;;;;;;;;;;7393499;19;20020;-78
2022/08/21 02:35:35;;;;;;;0.80;0.80;;;;;;;;;;7390157;19;20006;-78
2022/08/21 02:38:08;;;;;;;0.95;0.82;;;;;;;;;;7396430;19;20159;-77
2022/08/21 02:40:37;;;;;;;1.25;1.13;;;;;;;;;;7391500;19;20025;-77
2022/08/21 02:43:04;;;;;;;0.60;0.60;;;;;;;;;;7395507;19;20009;-77
2022/08/21 02:45:29;;;;;;;0.90;0.90;;;;;;;;;;7392681;19;20040;-77
2022/08/21 02:48:01;;;;;;;0.80;0.80;;;;;;;;;;7394801;19;20014;-76
2022/08/21 02:50:30;;;;;;;1.67;0.98;;;;;;;;;;7391500;19;20015;-76
2022/08/21 02:52:56;;;;;;;0.90;0.80;;;;;;;;;;7395191;19;20010;-75
2022/08/21 02:55:25;;;;;;;0.68;0.68;;;;;;;;;;7393085;19;20014;-78
2022/08/21 02:57:53;;;;;;;2.75;1.00;;;;;;;;;;7393358;19;20410;-75
2022/08/21 03:00:21;;;;;;;1.75;0.98;;;;;;;;;;7390809;19;20039;-75
2022/08/21 03:02:48;;;;;;;1.27;1.10;;;;;;;;;;7391333;19;20010;-76
2022/08/21 03:05:14;;;;;;;1.27;1.00;;;;;;;;;;7390776;19;20076;-76
2022/08/21 03:07:40;;;;;;;1.10;0.90;;;;;;;;;;7392411;19;20021;-75
2022/08/21 03:10:07;;;;;;;1.17;1.10;;;;;;;;;;7392573;19;20018;-76
2022/08/21 03:12:32;;;;;;;3.15;0.80;;;;;;;;;;7390687;19;20031;-75
2022/08/21 03:14:58;;;;;;;2.35;0.90;;;;;;;;;;7393286;19;20002;-75
2022/08/21 03:17:25;;;;;;;1.08;0.88;;;;;;;;;;7385190;19;20015;-76
2022/08/21 03:19:51;;;;;;;1.63;1.02;;;;;;;;;;7391328;19;20462;-76
2022/08/21 03:22:17;;;;;;;2.30;1.23;;;;;;;;;;7391004;19;20023;-76
2022/08/21 03:24:42;;;;;;;0.70;0.70;;;;;;;;;;7393116;19;20031;-75
2022/08/21 03:27:07;;;;;;;0.70;0.70;;;;;;;;;;7392479;19;20335;-75
2022/08/21 03:29:34;;;;;;;0.70;0.70;;;;;;;;;;7392854;19;20008;-75
2022/08/21 03:31:59;;;;;;;1.05;0.80;;;;;;;;;;7389399;19;20430;-76
2022/08/21 03:34:24;;;;;;;2.92;1.02;;;;;;;;;;7385373;19;20023;-75
2022/08/21 03:36:50;;;;;;;1.42;0.85;;;;;;;;;;7390534;19;19998;-76
2022/08/21 03:39:16;;;;;;;1.00;0.93;;;;;;;;;;7389016;19;20010;-76
2022/08/21 03:41:42;;;;;;;1.58;1.20;;;;;;;;;;7392566;19;20011;-76
2022/08/21 03:44:07;;;;;;;1.08;1.00;;;;;;;;;;7391823;19;20018;-76
2022/08/21 03:46:33;;;;;;;1.98;1.25;;;;;;;;;;7387520;19;20018;-76
2022/08/21 03:48:59;;;;;;;1.42;0.90;;;;;;;;;;7390320;19;20015;-76
2022/08/21 03:51:25;;;;;;;0.80;0.80;;;;;;;;;;7391715;19;20009;-75
2022/08/21 03:53:50;;;;;;;1.40;0.90;;;;;;;;;;7391092;19;20035;-75
2022/08/21 03:56:16;;;;;;;1.10;0.82;;;;;;;;;;7393377;19;20002;-79
2022/08/21 03:58:41;;;;;;;3.28;1.02;;;;;;;;;;7388550;19;20046;-76
2022/08/21 04:01:07;;;;;;;1.38;1.20;;;;;;;;;;7390162;19;19998;-76
2022/08/21 04:03:35;;;;;;;1.45;1.02;;;;;;;;;;7386488;19;20002;-76
2022/08/21 04:06:01;;;;;;;1.45;1.00;;;;;;;;;;7390676;19;20025;-78
2022/08/21 04:08:26;;;;;;;1.13;1.08;;;;;;;;;;7386762;19;20006;-76
2022/08/21 04:10:54;;;;;;;1.95;0.95;;;;;;;;;;7392991;19;19998;-75
2022/08/21 04:13:20;;;;;;;1.08;1.00;;;;;;;;;;7386903;19;20470;-77
2022/08/21 04:15:46;;;;;;;1.08;1.00;;;;;;;;;;7389991;19;20014;-76
2022/08/21 04:18:11;;;;;;;1.20;0.88;;;;;;;;;;7388553;19;20011;-76
2022/08/21 04:20:38;;;;;;;0.90;0.90;;;;;;;;;;7390653;19;20007;-76
2022/08/21 04:23:03;;;;;;;1.13;0.70;;;;;;;;;;7389935;19;20018;-76
2022/08/21 04:25:29;;;;;;;1.23;0.90;;;;;;;;;;7388759;19;20028;-76
2022/08/21 04:27:54;;;;;;;1.30;1.10;;;;;;;;;;7391223;19;20010;-79
2022/08/21 04:30:20;;;;;;;4.47;1.23;;;;;;;;;;7389457;19;20007;-76
2022/08/21 04:32:48;;;;;;;1.98;0.75;;;;;;;;;;7391024;19;20321;-76
2022/08/21 04:35:15;;;;;;;0.95;0.80;;;;;;;;;;7391712;19;20019;-76
2022/08/21 04:37:41;;;;;;;4.78;1.60;;;;;;;;;;7390331;19;20027;-76
2022/08/21 04:40:09;;;;;;;2.63;0.95;;;;;;;;;;7390472;19;20014;-76
2022/08/21 04:42:50;;;;;;;3.03;1.35;;;;;;;;;;7387238;19;20022;-75
2022/08/21 04:45:45;;;;;;;1.33;1.00;;;;;;;;;;7391612;19;20010;-76
2022/08/21 04:48:13;;;;;;;0.88;0.88;;;;;;;;;;7389311;19;20018;-76
2022/08/21 04:50:52;;;;;;;0.60;0.60;;;;;;;;;;7387232;19;20007;-76
2022/08/21 04:53:31;;;;;;;1.23;0.80;;;;;;;;;;7390028;19;20481;-76
2022/08/21 04:56:00;;;;;;;0.70;0.70;;;;;;;;;;7390454;19;20006;-76
2022/08/21 04:58:27;;;;;;;1.05;1.00;;;;;;;;;;7388614;19;20025;-76
2022/08/21 05:00:55;;;;;;;0.70;0.70;;;;;;;;;;7391636;19;20346;-77
2022/08/21 05:03:21;;;;;;;5.72;1.10;;;;;;;;;;7379554;19;20014;-76
2022/08/21 05:05:47;;;;;;;0.85;0.80;;;;;;;;;;7388123;19;20066;-77
2022/08/21 05:08:15;;;;;;;0.77;0.77;;;;;;;;;;7385845;19;20010;-77
2022/08/21 05:10:42;;;;;;;0.80;0.50;;;;;;;;;;7387798;19;20006;-76
2022/08/21 05:13:09;;;;;;;0.70;0.70;;;;;;;;;;7385939;19;20481;-76
2022/08/21 05:15:35;;;;;;;0.60;0.60;;;;;;;;;;7385887;19;20010;-76
2022/08/21 05:18:00;;;;;;;1.67;0.77;;;;;;;;;;7387192;19;20089;-76
2022/08/21 05:20:25;;;;;;;0.75;0.75;;;;;;;;;;7389559;19;20011;-77
2022/08/21 05:22:50;;;;;;;3.40;1.13;;;;;;;;;;7383928;19;20335;-77
2022/08/21 05:25:16;;;;;;;0.68;0.68;;;;;;;;;;7394004;19;20010;-76
2022/08/21 05:27:41;;;;;;;1.73;1.10;;;;;;;;;;7392381;19;19998;-77
2022/08/21 05:30:07;;;;;;;1.45;0.88;;;;;;;;;;7397411;19;19995;-76
2022/08/21 05:32:33;;;;;;;0.70;0.70;;;;;;;;;;7392735;19;20048;-77
2022/08/21 05:34:59;;;;;;;0.90;0.90;;;;;;;;;;7393660;19;20446;-77
2022/08/21 05:37:24;;;;;;;0.85;0.85;;;;;;;;;;7390382;19;20018;-76
2022/08/21 05:39:49;;;;;;;1.40;1.10;;;;;;;;;;7373607;19;20031;-76
2022/08/21 05:42:15;;;;;;;1.23;1.10;;;;;;;;;;7380403;19;20014;-77
2022/08/21 05:44:40;;;;;;;3.22;1.05;;;;;;;;;;7384335;19;20002;-80
2022/08/21 05:47:08;;;;;;;6.80;0.98;;;;;;;;;;7385399;19;20111;-78
2022/08/21 05:49:34;;;;;;;3.13;1.30;;;;;;;;;;7390401;19;20048;-77
2022/08/21 05:51:59;;;;;;;1.23;1.08;;;;;;;;;;7390161;19;20021;-77
2022/08/21 05:54:24;;;;;;;2.45;1.00;;;;;;;;;;7382475;19;20006;-77
2022/08/21 05:56:51;;;;;;;3.22;1.15;;;;;;;;;;7390249;19;20437;-77
2022/08/21 05:59:17;;;;;;;1.83;1.20;;;;;;;;;;7394650;19;20010;-76
2022/08/21 06:01:42;;;;;;;2.05;1.23;;;;;;;;;;7390677;19;20003;-78
2022/08/21 06:04:07;;;;;;;1.60;1.50;;;;;;;;;;7394106;19;20003;-77
2022/08/21 06:06:33;;;;;;;1.58;1.30;;;;;;;;;;7386480;19;20010;-77
2022/08/21 06:08:59;;;;;;;2.05;1.25;;;;;;;;;;7393902;19;20014;-77
2022/08/21 06:11:24;;;;;;;1.00;1.00;;;;;;;;;;7391261;19;20014;-77
2022/08/21 06:13:50;;;;;;;4.72;1.80;;;;;;;;;;7394931;19;20378;-77
2022/08/21 06:16:17;;;;;;;3.53;1.40;;;;;;;;;;7390945;19;20003;-77
2022/08/21 06:18:44;;;;;;;2.22;1.58;;;;;;;;;;7390335;19;20607;-76
2022/08/21 06:21:11;;;;;;;1.35;1.25;;;;;;;;;;7393021;19;20039;-77
2022/08/21 06:23:36;;;;;;;2.00;1.10;;;;;;;;;;7388042;19;20030;-77
2022/08/21 06:26:04;;;;;;;1.90;1.40;;;;;;;;;;7390993;19;20011;-77
2022/08/21 06:28:30;;;;;;;2.25;1.20;;;;;;;;;;7391019;19;20572;-77
2022/08/21 06:30:56;;;;;;;4.05;1.33;;;;;;;;;;7388006;19;20011;-77
2022/08/21 06:33:21;;;;;;;1.83;1.10;;;;;;;;;;7387839;19;20461;-77
2022/08/21 06:35:46;;;;;;;2.08;1.35;;;;;;;;;;7388676;19;20036;-76
2022/08/21 06:38:12;;;;;;;2.08;1.45;;;;;;;;;;7387692;19;20018;-77
2022/08/21 06:40:38;;;;;;;2.50;1.48;;;;;;;;;;7389851;19;20139;-77
2022/08/21 06:43:09;;;;;;;2.35;1.38;;;;;;;;;;7385933;19;20356;-76
2022/08/21 06:45:35;;;;;;;2.15;1.45;;;;;;;;;;7388850;19;20018;-77
2022/08/21 06:48:00;;;;;;;1.50;1.40;;;;;;;;;;7389273;19;20016;-77
2022/08/21 06:50:26;;;;;;;2.15;1.50;;;;;;;;;;7391874;19;20320;-77
2022/08/21 06:53:04;;;;;;;2.05;1.50;;;;;;;;;;7390069;19;20120;-76
2022/08/21 06:55:29;;;;;;;3.13;1.70;;;;;;;;;;7386934;19;20006;-77
2022/08/21 06:57:55;;;;;;;10.00;2.15;;;;;;;;;;7390662;19;20081;-77
2022/08/21 07:00:20;;;;;;;3.15;1.98;;;;;;;;;;7389955;19;20078;-76
2022/08/21 07:02:45;;;;;;;3.08;1.65;;;;;;;;;;7384325;19;20357;-76
2022/08/21 07:05:11;;;;;;;2.45;1.80;;;;;;;;;;7392486;19;20446;-77
2022/08/21 07:07:36;;;;;;;1.88;1.67;;;;;;;;;;7390379;19;20478;-78
2022/08/21 07:10:02;;;;;;;5.05;1.80;;;;;;;;;;7389202;19;20024;-77
2022/08/21 07:12:27;;;;;;;6.25;1.90;;;;;;;;;;7391627;19;20334;-76
2022/08/21 07:14:53;;;;;;;1.60;1.50;;;;;;;;;;7390673;19;20011;-79
2022/08/21 07:17:18;;;;;;;5.53;2.10;;;;;;;;;;7390802;19;20007;-76
2022/08/21 07:19:43;;;;;;;2.05;1.80;;;;;;;;;;7392148;19;20014;-76
2022/08/21 07:22:09;;;;;;;3.22;2.20;;;;;;;;;;7389330;19;20017;-76
2022/08/21 07:24:34;;;;;;;3.08;1.73;;;;;;;;;;7391768;19;20003;-76
2022/08/21 07:26:59;;;;;;;3.55;1.95;;;;;;;;;;7389430;19;20029;-77
2022/08/21 07:29:25;;;;;;;3.35;2.20;;;;;;;;;;7387732;19;20006;-76
2022/08/21 07:31:50;;;;;;;3.20;2.05;;;;;;;;;;7390703;19;20010;-77
2022/08/21 07:34:15;;;;;;;2.58;1.70;;;;;;;;;;7391226;19;20066;-77
2022/08/21 07:36:41;;;;;;;4.78;2.10;;;;;;;;;;7387918;19;20070;-76
2022/08/21 07:39:07;;;;;;;1.98;1.80;;;;;;;;;;7391570;19;19998;-77
2022/08/21 07:41:34;;;;;;;2.40;1.90;;;;;;;;;;7389914;19;20014;-77
2022/08/21 07:43:59;;;;;;;3.25;2.35;;;;;;;;;;7392382;19;19995;-76
2022/08/21 07:46:26;;;;;;;3.58;2.30;;;;;;;;;;7385653;19;20053;-76
2022/08/21 07:48:52;;;;;;;4.07;2.60;;;;;;;;;;7385113;19;20023;-76
2022/08/21 07:51:19;;;;;;;3.35;2.58;;;;;;;;;;7388577;19;20003;-76
2022/08/21 07:53:52;;;;;;;3.05;2.33;;;;;;;;;;7388076;19;20014;-77
2022/08/21 07:56:17;;;;;;;3.58;2.53;;;;;;;;;;7388902;19;20002;-77
2022/08/21 07:58:43;;;;;;;3.72;2.60;;;;;;;;;;7389883;19;20035;-77
2022/08/21 08:01:08;;;;;;;3.33;2.40;;;;;;;;;;7388902;19;20084;-76
2022/08/21 08:03:34;;;;;;;4.45;3.00;;;;;;;;;;7386677;19;20018;-76
2022/08/21 08:06:00;;;;;;;5.75;2.95;;;;;;;;;;7388301;19;20090;-76
2022/08/21 08:08:25;;;;;;;7.57;2.90;;;;;;;;;;7388409;19;20421;-76
2022/08/21 08:10:52;;;;;;;2.58;2.38;;;;;;;;;;7389035;19;20012;-77
2022/08/21 08:13:17;;;;;;;5.20;2.70;;;;;;;;;;7391491;19;20050;-76
2022/08/21 08:15:43;;;;;;;3.42;2.65;;;;;;;;;;7389578;19;20321;-76
2022/08/21 08:18:08;;;;;;;3.40;2.78;;;;;;;;;;7387248;19;20006;-75
2022/08/21 08:20:33;;;;;;;7.63;3.35;;;;;;;;;;7386147;19;21070;-76
2022/08/21 08:22:59;;;;;;;4.45;2.90;;;;;;;;;;7386341;19;20003;-75
2022/08/21 08:25:25;;;;;;;5.13;3.03;;;;;;;;;;7387683;19;20018;-75
2022/08/21 08:27:51;;;;;;;4.00;3.08;;;;;;;;;;7392044;19;20560;-76
2022/08/21 08:30:18;;;;;;;3.45;2.75;;;;;;;;;;7391129;19;20015;-76
2022/08/21 08:32:44;;;;;;;4.07;2.60;;;;;;;;;;7390936;19;20014;-76
2022/08/21 08:35:11;;;;;;;5.32;2.72;;;;;;;;;;7390232;19;20017;-76
2022/08/21 08:37:39;;;;;;;4.28;3.20;;;;;;;;;;7390409;19;20005;-76
2022/08/21 08:40:06;;;;;;;4.88;3.20;;;;;;;;;;7386200;19;20003;-76
2022/08/21 08:42:35;;;;;;;4.50;3.15;;;;;;;;;;7386601;19;20029;-76
2022/08/21 08:45:11;;;;;;;4.55;2.78;;;;;;;;;;7387197;19;19995;-77
2022/08/21 08:47:44;;;;;;;3.95;3.35;;;;;;;;;;7387101;19;20506;-77
2022/08/21 08:50:16;;;;;;;7.05;2.90;;;;;;;;;;7391606;19;19995;-77
2022/08/21 08:52:49;;;;;;;9.60;3.65;;;;;;;;;;7387134;19;20003;-76
2022/08/21 08:55:20;;;;;;;3.88;2.90;;;;;;;;;;7387066;19;20481;-76
2022/08/21 08:57:48;;;;;;;3.58;3.08;;;;;;;;;;7391689;19;20010;-76
2022/08/21 09:00:17;;;;;;;3.45;2.97;;;;;;;;;;7395586;19;20713;-76
2022/08/21 09:02:45;;;;;;;4.90;3.35;;;;;;;;;;7391625;19;20017;-76
2022/08/21 09:05:52;;;;;;;4.05;3.00;;;;;;;;;;7395691;19;20387;-77
2022/08/21 09:08:49;;;;;;;3.38;2.42;;;;;;;;;;7393446;19;20430;-77
2022/08/21 09:11:39;;;;;;;4.18;2.47;;;;;;;;;;7396973;19;20003;-77
2022/08/21 09:14:12;;;;;;;4.15;2.35;;;;;;;;;;7397811;19;20391;-77
2022/08/21 09:17:13;;;;;;;3.95;3.00;;;;;;;;;;7401921;19;20006;-78
2022/08/21 09:19:57;;;;;;;3.40;2.70;;;;;;;;;;7396586;19;20010;-78
2022/08/21 09:22:45;;;;;;;3.95;3.05;;;;;;;;;;7396219;19;20010;-77
2022/08/21 09:25:20;;;;;;;2.42;2.00;;;;;;;;;;7397008;19;20010;-77
2022/08/21 09:27:45;;;;;;;3.03;2.20;;;;;;;;;;7395695;19;20548;-77
2022/08/21 09:30:12;;;;;;;4.57;2.90;;;;;;;;;;7394508;19;20006;-76
2022/08/21 09:32:38;;;;;;;3.20;2.70;;;;;;;;;;7396389;19;20011;-76
2022/08/21 09:35:17;;;;;;;4.13;2.47;;;;;;;;;;7393566;19;20068;-77
2022/08/21 09:37:55;;;;;;;3.28;2.42;;;;;;;;;;7394460;19;20006;-76
2022/08/21 09:40:35;;;;;;;3.33;2.20;;;;;;;;;;7395340;19;20031;-76
2022/08/21 09:43:16;;;;;;;2.28;2.08;;;;;;;;;;7393441;19;20013;-76
2022/08/21 09:45:44;;;;;;;2.63;2.10;;;;;;;;;;7395503;19;20010;-76
2022/08/21 09:48:18;;;;;;;3.58;2.38;;;;;;;;;;7393196;19;20465;-76
2022/08/21 09:50:44;;;;;;;4.57;2.40;;;;;;;;;;7394576;19;20879;-76
2022/08/21 09:53:28;;;;;;;2.50;2.30;;;;;;;;;;7394049;19;20006;-76
2022/08/21 09:58:47;;;;;;;2.55;2.30;;;;;;;;;;7392998;19;20371;-77
2022/08/21 10:01:23;;;;;;;2.92;2.55;;;;;;;;;;7392384;19;20017;-77
2022/08/21 10:04:01;;;;;;;2.58;2.15;;;;;;;;;;7393969;19;20014;-78
2022/08/21 10:06:28;;;;;;;4.75;2.40;;;;;;;;;;7390169;19;20014;-77
2022/08/21 10:09:15;;;;;;;2.05;1.83;;;;;;;;;;7388969;19;20041;-77
2022/08/21 10:12:06;;;;;;;3.40;2.38;;;;;;;;;;7394384;19;20316;-77
2022/08/21 10:14:35;;;;;;;3.40;2.20;;;;;;;;;;7394653;19;20522;-77
2022/08/21 10:17:12;;;;;;;2.15;1.92;;;;;;;;;;7391040;19;20437;-77
2022/08/21 10:19:55;;;;;;;3.55;2.20;;;;;;;;;;7395954;19;20002;-77
2022/08/21 10:22:38;;;;;;;2.42;1.60;;;;;;;;;;7389743;19;20478;-77
2022/08/21 10:25:25;;;;;;;1.65;1.55;;;;;;;;;;7394764;19;20398;-77
2022/08/21 10:28:11;;;;;;;2.47;2.20;;;;;;;;;;7393977;19;20462;-77
2022/08/21 10:30:46;;;;;;;2.22;1.55;;;;;;;;;;7392702;19;20015;-78
2022/08/21 10:33:20;;;;;;;2.38;1.75;;;;;;;;;;7393130;19;20034;-78
2022/08/21 10:35:57;;;;;;;1.77;1.55;;;;;;;;;;7393155;19;20032;-78
2022/08/21 10:38:53;;;;;;;3.08;1.75;;;;;;;;;;7392012;19;20462;-77
2022/08/21 10:41:40;;;;;;;1.70;1.30;;;;;;;;;;7390178;19;20035;-77
2022/08/21 10:44:31;;;;;;;1.63;1.52;;;;;;;;;;7390906;19;20028;-76
2022/08/21 10:47:12;;;;;;;2.33;1.67;;;;;;;;;;7383410;19;20021;-76
2022/08/21 10:49:53;;;;;;;1.85;1.23;;;;;;;;;;7387043;19;20008;-76
2022/08/21 10:52:24;;;;;;;3.28;1.20;;;;;;;;;;7390695;19;20438;-76
2022/08/21 10:55:00;;;;;;;1.45;1.23;;;;;;;;;;7394207;19;20377;-76
2022/08/21 10:57:47;;;;;;;2.80;1.58;;;;;;;;;;7393522;19;20472;-76
2022/08/21 11:00:17;;;;;;;1.45;1.27;;;;;;;;;;7391603;19;20081;-76
2022/08/21 11:02:46;;;;;;;1.55;1.25;;;;;;;;;;7388494;19;20379;-77
2022/08/21 11:05:25;;;;;;;3.58;1.30;;;;;;;;;;7388635;19;20050;-77
2022/08/21 11:07:56;;;;;;;2.67;1.45;;;;;;;;;;7390513;19;20364;-76
2022/08/21 11:10:41;;;;;;;2.58;1.20;;;;;;;;;;7392058;19;20454;-76
2022/08/21 11:13:20;;;;;;;1.60;1.30;;;;;;;;;;7393316;19;20006;-76
2022/08/21 11:16:15;;;;;;;1.95;1.33;;;;;;;;;;7391119;19;20006;-76
2022/08/21 11:18:46;;;;;;;1.75;1.30;;;;;;;;;;7393548;19;20013;-77
2022/08/21 11:21:53;;;;;;;1.40;1.10;;;;;;;;;;7388336;19;20017;-77
2022/08/21 11:24:44;;;;;;;2.25;1.20;;;;;;;;;;7390925;19;20106;-76
2022/08/21 11:27:22;;;;;;;2.35;1.20;;;;;;;;;;7393298;19;20010;-76
2022/08/21 11:29:56;;;;;;;1.77;1.30;;;;;;;;;;7391793;19;20491;-76
2022/08/21 11:32:24;;;;;;;2.83;1.45;;;;;;;;;;7393163;19;20017;-76
2022/08/21 11:35:23;;;;;;;1.58;1.23;;;;;;;;;;7389583;19;20054;-76
2022/08/21 11:38:07;;;;;;;1.58;1.10;;;;;;;;;;7390419;19;20017;-76
2022/08/21 11:40:52;;;;;;;2.97;1.33;;;;;;;;;;7391586;19;20350;-76
2022/08/21 11:43:38;;;;;;;1.48;1.02;;;;;;;;;;7387820;19;20346;-76
2022/08/21 11:46:22;;;;;;;1.30;1.20;;;;;;;;;;7391423;19;20000;-76
2022/08/21 11:49:14;;;;;;;1.42;0.98;;;;;;;;;;7389234;19;20018;-76
2022/08/21 11:52:16;;;;;;;1.10;1.00;;;;;;;;;;7391015;19;20014;-76
2022/08/21 11:54:49;;;;;;;2.30;1.30;;;;;;;;;;7390951;19;20031;-76
2022/08/21 11:57:28;;;;;;;0.95;0.95;;;;;;;;;;7390542;19;20049;-76
2022/08/21 12:00:08;;;;;;;1.42;1.23;;;;;;;;;;7387985;19;20043;-77
2022/08/21 12:02:37;;;;;;;2.10;1.10;;;;;;;;;;7388520;19;20015;-77
2022/08/21 12:05:33;;;;;;;2.58;1.25;;;;;;;;;;7389998;19;20536;-77
2022/08/21 12:08:11;;;;;;;1.00;0.90;;;;;;;;;;7390260;19;20011;-76
2022/08/21 12:10:58;;;;;;;2.17;0.90;;;;;;;;;;7391073;19;20022;-76
2022/08/21 12:13:30;;;;;;;1.30;0.90;;;;;;;;;;7389753;19;20035;-77
2022/08/21 12:16:13;;;;;;;1.98;1.17;;;;;;;;;;7390917;19;20111;-76
2022/08/21 12:18:39;;;;;;;1.75;1.30;;;;;;;;;;7388732;19;20010;-77
2022/08/21 12:21:21;;;;;;;1.20;1.10;;;;;;;;;;7388542;19;20469;-76
2022/08/21 12:24:15;;;;;;;1.15;0.90;;;;;;;;;;7389291;19;20473;-76
2022/08/21 12:26:54;;;;;;;1.38;0.75;;;;;;;;;;7390285;19;19998;-76
2022/08/21 12:29:25;;;;;;;4.20;1.05;;;;;;;;;;7389671;19;20679;-76
2022/08/21 12:32:05;;;;;;;1.08;0.93;;;;;;;;;;7389551;19;20014;-76
2022/08/21 12:34:47;;;;;;;1.38;0.85;;;;;;;;;;7396023;19;20003;-76
2022/08/21 12:37:39;;;;;;;1.40;1.08;;;;;;;;;;7395890;19;20006;-77
2022/08/21 12:40:13;;;;;;;1.88;1.20;;;;;;;;;;7396293;19;20486;-77
2022/08/21 12:42:43;;;;;;;0.88;0.88;;;;;;;;;;7389647;19;20010;-77
2022/08/21 12:45:23;;;;;;;1.88;1.30;;;;;;;;;;7397609;19;20048;-77
2022/08/21 12:47:48;;;;;;;1.30;1.00;;;;;;;;;;7395559;19;20011;-76
2022/08/21 12:50:23;;;;;;;1.90;0.93;;;;;;;;;;7390879;19;20015;-76
2022/08/21 12:53:26;;;;;;;1.92;1.10;;;;;;;;;;7395939;19;20007;-76
2022/08/21 12:55:53;;;;;;;1.80;1.33;;;;;;;;;;7393017;19;20026;-76
2022/08/21 12:58:23;;;;;;;2.35;1.10;;;;;;;;;;7394251;19;20016;-77
2022/08/21 13:00:55;;;;;;;3.05;1.40;;;;;;;;;;7396522;19;20010;-75
2022/08/21 13:03:22;;;;;;;2.55;1.20;;;;;;;;;;7392872;19;20002;-76
2022/08/21 13:05:51;;;;;;;3.30;1.13;;;;;;;;;;7392950;19;20031;-76
2022/08/21 13:08:19;;;;;;;2.20;1.10;;;;;;;;;;7392539;19;20011;-76
2022/08/21 13:10:47;;;;;;;2.13;1.20;;;;;;;;;;7395553;19;19998;-76
2022/08/21 13:13:20;;;;;;;1.33;1.20;;;;;;;;;;7393233;19;20010;-76
2022/08/21 13:15:46;;;;;;;1.10;1.00;;;;;;;;;;7396080;19;20010;-76
2022/08/21 13:18:22;;;;;;;2.05;1.25;;;;;;;;;;7391629;19;20002;-76
2022/08/21 13:20:48;;;;;;;2.78;1.17;;;;;;;;;;7393592;19;20014;-76
2022/08/21 13:23:29;;;;;;;2.13;1.20;;;;;;;;;;7393441;19;20030;-76
2022/08/21 13:25:57;;;;;;;1.25;1.13;;;;;;;;;;7396195;19;19994;-76
2022/08/21 13:28:24;;;;;;;1.30;1.20;;;;;;;;;;7395207;19;20370;-76
2022/08/21 13:30:55;;;;;;;2.58;1.35;;;;;;;;;;7396493;19;20002;-77
2022/08/21 13:33:25;;;;;;;2.75;1.40;;;;;;;;;;7393590;19;20421;-77
2022/08/21 13:35:56;;;;;;;3.45;1.30;;;;;;;;;;7392735;19;20387;-77
2022/08/21 13:38:26;;;;;;;2.78;1.20;;;;;;;;;;7394212;19;20093;-76
2022/08/21 13:40:56;;;;;;;1.73;1.40;;;;;;;;;;7394712;19;20470;-76
2022/08/21 13:43:28;;;;;;;1.52;1.17;;;;;;;;;;7389896;19;20010;-77
2022/08/21 13:45:55;;;;;;;2.15;1.23;;;;;;;;;;7390422;19;20034;-78
2022/08/21 13:48:24;;;;;;;1.80;1.13;;;;;;;;;;7394411;19;20034;-76
2022/08/21 13:50:51;;;;;;;1.52;1.10;;;;;;;;;;7390684;19;20605;-77
2022/08/21 13:53:23;;;;;;;1.95;1.40;;;;;;;;;;7395198;19;20027;-76
2022/08/21 13:55:49;;;;;;;1.38;1.10;;;;;;;;;;7393890;19;20046;-77
2022/08/21 13:58:28;;;;;;;2.25;1.25;;;;;;;;;;7392238;19;20019;-76
2022/08/21 14:00:55;;;;;;;2.15;1.40;;;;;;;;;;7391222;19;20014;-78
2022/08/21 14:03:41;;;;;;;2.60;1.10;;;;;;;;;;7392558;19;20010;-76
2022/08/21 14:06:27;;;;;;;1.63;1.10;;;;;;;;;;7392875;19;20466;-76
2022/08/21 14:08:57;;;;;;;1.27;1.17;;;;;;;;;;7392425;19;20098;-75
2022/08/21 14:11:25;;;;;;;2.35;1.08;;;;;;;;;;7394297;19;20003;-76
2022/08/21 14:14:05;;;;;;;3.38;1.35;;;;;;;;;;7391967;19;20027;-76
2022/08/21 14:16:46;;;;;;;6.75;1.42;;;;;;;;;;7392133;19;20506;-76
2022/08/21 14:19:20;;;;;;;2.92;1.23;;;;;;;;;;7394801;19;20469;-76
2022/08/21 14:21:46;;;;;;;1.23;1.08;;;;;;;;;;7392900;19;20002;-77
2022/08/21 14:24:24;;;;;;;1.92;1.13;;;;;;;;;;7393617;19;20010;-76
2022/08/21 14:27:05;;;;;;;1.85;1.20;;;;;;;;;;7391657;19;20002;-77
2022/08/21 14:29:41;;;;;;;1.48;0.98;;;;;;;;;;7393927;19;19998;-77
2022/08/21 14:32:16;;;;;;;1.05;0.90;;;;;;;;;;7393229;19;20497;-77
2022/08/21 14:34:41;;;;;;;;;;;;;;;;;;7393314;19;20444;-76
2022/08/21 14:37:06;;;;;;;1.63;1.17;;;;;;;;;;7391500;19;19922;-77
2022/08/21 14:39:32;;;;;;;1.48;1.02;;;;;;;;;;7393259;19;20012;-76
2022/08/21 14:41:58;;;;;;;1.30;1.08;;;;;;;;;;7393159;19;20011;-76
2022/08/21 14:44:24;;;;;;;1.83;0.95;;;;;;;;;;7394879;19;19995;-76
2022/08/21 14:46:50;;;;;;;1.95;1.10;;;;;;;;;;7389085;19;20010;-76
2022/08/21 14:49:15;;;;;;;1.70;1.10;;;;;;;;;;7394225;19;20474;-77
2022/08/21 14:51:40;;;;;;;2.10;1.23;;;;;;;;;;7390859;19;20007;-76
2022/08/21 14:54:07;;;;;;;3.83;1.20;;;;;;;;;;7392133;19;20023;-76
2022/08/21 14:56:33;;;;;;;2.78;1.20;;;;;;;;;;7390307;19;20011;-76
2022/08/21 14:59:04;;;;;;;1.95;1.20;;;;;;;;;;7391646;19;20470;-76
2022/08/21 15:01:30;;;;;;;2.05;1.20;;;;;;;;;;7388929;19;20010;-77
2022/08/21 15:03:55;;;;;;;2.70;1.40;;;;;;;;;;7391703;19;20010;-78
2022/08/21 15:06:21;;;;;;;2.30;1.30;;;;;;;;;;7390520;19;19998;-77